createdAt,value
2018-09-09T00:00:38.532Z,0.00
2018-09-09T00:01:38.555Z,0.00
2018-09-09T00:02:38.568Z,0.00
2018-09-09T00:03:38.595Z,0.00
2018-09-09T00:04:38.608Z,0.00
2018-09-09T00:05:38.635Z,0.00
2018-09-09T00:06:38.647Z,0.00
2018-09-09T00:07:38.672Z,0.00
2018-09-09T00:08:38.687Z,0.00
2018-09-09T00:09:38.713Z,0.00
2018-09-09T00:10:38.728Z,0.00
2018-09-09T00:11:38.751Z,0.00
2018-09-09T00:12:38.766Z,0.00
2018-09-09T00:13:38.797Z,0.00
2018-09-09T00:14:38.805Z,0.00
2018-09-09T00:15:38.830Z,0.00
2018-09-09T00:16:38.845Z,0.00
2018-09-09T00:17:38.870Z,0.00
2018-09-09T00:18:38.887Z,0.00
2018-09-09T00:19:38.909Z,0.00
2018-09-09T00:20:38.923Z,0.00
2018-09-09T00:21:38.951Z,0.00
2018-09-09T00:22:38.962Z,0.00
2018-09-09T00:23:38.989Z,0.00
2018-09-09T00:24:39.003Z,0.00
2018-09-09T00:25:39.029Z,0.00
2018-09-09T00:26:39.040Z,0.00
2018-09-09T00:27:39.067Z,0.00
2018-09-09T00:28:39.084Z,0.00
2018-09-09T00:29:39.108Z,0.00
2018-09-09T00:30:39.120Z,0.00
2018-09-09T00:31:39.146Z,0.00
2018-09-09T00:32:39.161Z,0.00
2018-09-09T00:33:39.186Z,0.00
2018-09-09T00:34:39.199Z,0.00
2018-09-09T00:35:39.225Z,0.00
2018-09-09T00:36:39.240Z,0.00
2018-09-09T00:37:39.265Z,0.00
2018-09-09T00:38:39.279Z,0.00
2018-09-09T00:39:39.304Z,0.00
2018-09-09T00:40:39.318Z,0.00
2018-09-09T00:41:39.344Z,0.00
2018-09-09T00:42:39.356Z,0.00
2018-09-09T00:43:39.383Z,0.00
2018-09-09T00:44:39.397Z,0.00
2018-09-09T00:45:39.423Z,0.00
2018-09-09T00:46:39.439Z,0.00
2018-09-09T00:47:39.461Z,0.00
2018-09-09T00:48:39.475Z,0.00
2018-09-09T00:49:39.502Z,0.00
2018-09-09T00:50:39.514Z,0.00
2018-09-09T00:51:39.554Z,0.00
2018-09-09T00:52:39.555Z,0.00
2018-09-09T00:53:39.581Z,0.00
2018-09-09T00:54:39.595Z,0.00
2018-09-09T00:55:39.632Z,0.00
2018-09-09T00:56:39.633Z,0.00
2018-09-09T00:57:39.660Z,0.00
2018-09-09T00:58:39.673Z,0.00
2018-09-09T00:59:39.698Z,0.00
2018-09-09T01:00:39.713Z,0.00
2018-09-09T01:01:39.738Z,0.00
2018-09-09T01:02:39.765Z,0.00
2018-09-09T01:03:39.779Z,0.00
2018-09-09T01:04:39.791Z,0.00
2018-09-09T01:05:39.816Z,0.00
2018-09-09T01:06:39.829Z,0.00
2018-09-09T01:07:39.857Z,0.00
2018-09-09T01:08:39.869Z,0.00
2018-09-09T01:09:39.897Z,0.00
2018-09-09T01:10:39.922Z,0.00
2018-09-09T01:11:39.934Z,0.00
2018-09-09T01:12:39.949Z,0.00
2018-09-09T01:13:39.974Z,0.00
2018-09-09T01:14:39.986Z,0.00
2018-09-09T01:15:40.016Z,0.00
2018-09-09T01:16:40.028Z,0.00
2018-09-09T01:17:40.053Z,0.00
2018-09-09T01:18:40.066Z,0.00
2018-09-09T01:19:40.091Z,0.00
2018-09-09T01:20:40.105Z,0.00
2018-09-09T01:21:40.132Z,0.00
2018-09-09T01:22:40.148Z,0.00
2018-09-09T01:23:40.170Z,0.00
2018-09-09T01:24:40.184Z,0.00
2018-09-09T01:25:40.214Z,0.00
2018-09-09T01:26:40.223Z,0.00
2018-09-09T01:27:40.249Z,0.00
2018-09-09T01:28:40.264Z,0.00
2018-09-09T01:29:40.289Z,0.00
2018-09-09T01:30:40.303Z,0.00
2018-09-09T01:31:40.341Z,0.00
2018-09-09T01:32:40.342Z,0.00
2018-09-09T01:33:40.372Z,0.00
2018-09-09T01:34:40.381Z,0.00
2018-09-09T01:35:40.407Z,0.00
2018-09-09T01:36:40.421Z,0.00
2018-09-09T01:37:40.490Z,0.00
2018-09-09T01:38:40.462Z,0.00
2018-09-09T01:39:40.489Z,0.00
2018-09-09T01:40:40.500Z,0.00
2018-09-09T01:41:40.526Z,0.00
2018-09-09T01:42:40.540Z,0.00
2018-09-09T01:43:40.564Z,0.00
2018-09-09T01:44:40.591Z,0.00
2018-09-09T01:45:40.605Z,0.00
2018-09-09T01:46:40.631Z,0.00
2018-09-09T01:47:40.645Z,0.00
2018-09-09T01:48:40.669Z,0.00
2018-09-09T01:49:40.684Z,0.00
2018-09-09T01:50:40.697Z,0.00
2018-09-09T01:51:40.722Z,0.00
2018-09-09T01:52:40.748Z,0.00
2018-09-09T01:53:40.763Z,0.00
2018-09-09T01:54:40.788Z,0.00
2018-09-09T01:55:40.801Z,0.00
2018-09-09T01:56:40.827Z,0.00
2018-09-09T01:57:40.842Z,0.00
2018-09-09T01:58:40.855Z,0.00
2018-09-09T01:59:40.880Z,0.00
2018-09-09T02:00:40.918Z,0.00
2018-09-09T02:01:40.920Z,0.00
2018-09-09T02:02:40.946Z,0.00
2018-09-09T02:03:40.960Z,0.00
2018-09-09T02:04:40.987Z,0.00
2018-09-09T02:05:40.999Z,0.00
2018-09-09T02:06:41.025Z,0.00
2018-09-09T02:07:41.037Z,0.00
2018-09-09T02:08:41.065Z,0.00
2018-09-09T02:09:41.079Z,0.00
2018-09-09T02:10:41.104Z,0.00
2018-09-09T02:11:41.116Z,0.00
2018-09-09T02:12:41.146Z,0.00
2018-09-09T02:13:41.156Z,0.00
2018-09-09T02:14:41.184Z,0.00
2018-09-09T02:15:41.199Z,0.00
2018-09-09T02:16:41.221Z,0.00
2018-09-09T02:17:41.235Z,0.00
2018-09-09T02:18:41.261Z,0.00
2018-09-09T02:19:41.276Z,0.00
2018-09-09T02:20:41.300Z,0.00
2018-09-09T02:21:41.314Z,0.00
2018-09-09T02:22:41.340Z,0.00
2018-09-09T02:23:41.353Z,0.00
2018-09-09T02:24:41.378Z,0.00
2018-09-09T02:25:41.408Z,0.00
2018-09-09T02:26:41.419Z,0.00
2018-09-09T02:27:41.431Z,0.00
2018-09-09T02:28:41.458Z,0.00
2018-09-09T02:29:41.471Z,0.00
2018-09-09T02:30:41.498Z,0.00
2018-09-09T02:31:41.511Z,0.00
2018-09-09T02:32:41.538Z,0.00
2018-09-09T02:33:41.552Z,0.00
2018-09-09T02:34:41.577Z,0.00
2018-09-09T02:35:41.605Z,0.00
2018-09-09T02:36:41.618Z,0.00
2018-09-09T02:37:41.631Z,0.00
2018-09-09T02:38:41.656Z,0.00
2018-09-09T02:39:41.668Z,0.00
2018-09-09T02:40:41.695Z,0.00
2018-09-09T02:41:41.709Z,0.00
2018-09-09T02:42:41.734Z,0.00
2018-09-09T02:43:41.756Z,0.00
2018-09-09T02:44:41.786Z,0.00
2018-09-09T02:45:41.788Z,0.00
2018-09-09T02:46:41.814Z,0.00
2018-09-09T02:47:41.827Z,0.00
2018-09-09T02:48:41.852Z,0.00
2018-09-09T02:49:41.869Z,0.00
2018-09-09T02:50:41.893Z,0.00
2018-09-09T02:51:41.906Z,0.00
2018-09-09T02:52:41.931Z,0.00
2018-09-09T02:53:41.948Z,0.00
2018-09-09T02:54:41.971Z,0.00
2018-09-09T02:55:41.985Z,0.00
2018-09-09T02:56:42.011Z,0.00
2018-09-09T02:57:42.025Z,0.00
2018-09-09T02:58:42.049Z,0.00
2018-09-09T02:59:42.064Z,0.00
2018-09-09T03:00:42.088Z,0.00
2018-09-09T03:01:42.103Z,0.00
2018-09-09T03:02:42.129Z,0.00
2018-09-09T03:03:42.141Z,0.00
2018-09-09T03:04:42.168Z,0.00
2018-09-09T03:05:42.181Z,0.00
2018-09-09T03:06:42.221Z,0.00
2018-09-09T03:07:42.221Z,0.00
2018-09-09T03:08:42.245Z,0.00
2018-09-09T03:09:42.260Z,0.00
2018-09-09T03:10:42.285Z,0.00
2018-09-09T03:11:42.315Z,0.00
2018-09-09T03:12:42.324Z,0.00
2018-09-09T03:13:42.338Z,0.00
2018-09-09T03:14:42.366Z,0.00
2018-09-09T03:15:42.378Z,0.00
2018-09-09T03:16:42.404Z,0.00
2018-09-09T03:17:42.419Z,0.00
2018-09-09T03:18:42.433Z,0.00
2018-09-09T03:19:42.457Z,0.00
2018-09-09T03:20:42.482Z,0.00
2018-09-09T03:21:42.496Z,0.00
2018-09-09T03:22:42.511Z,0.00
2018-09-09T03:23:42.536Z,0.00
2018-09-09T03:24:42.550Z,0.00
2018-09-09T03:25:42.575Z,0.00
2018-09-09T03:26:42.591Z,0.00
2018-09-09T03:27:42.613Z,0.00
2018-09-09T03:28:42.667Z,0.00
2018-09-09T03:29:42.661Z,0.00
2018-09-09T03:30:42.667Z,0.00
2018-09-09T03:31:42.708Z,0.00
2018-09-09T03:32:42.706Z,0.00
2018-09-09T03:33:42.736Z,0.00
2018-09-09T03:34:42.748Z,0.00
2018-09-09T03:35:42.772Z,0.00
2018-09-09T03:36:42.787Z,0.00
2018-09-09T03:37:42.812Z,0.00
2018-09-09T03:38:42.825Z,0.00
2018-09-09T03:39:42.851Z,0.00
2018-09-09T03:40:42.864Z,0.00
2018-09-09T03:41:42.891Z,0.00
2018-09-09T03:42:42.904Z,0.00
2018-09-09T03:43:42.929Z,0.00
2018-09-09T03:44:42.944Z,0.00
2018-09-09T03:45:42.970Z,0.00
2018-09-09T03:46:42.996Z,0.00
2018-09-09T03:47:43.013Z,0.00
2018-09-09T03:48:43.023Z,0.00
2018-09-09T03:49:43.039Z,0.00
2018-09-09T03:50:43.061Z,0.00
2018-09-09T03:51:43.089Z,0.00
2018-09-09T03:52:43.101Z,0.00
2018-09-09T03:53:43.116Z,0.00
2018-09-09T03:54:43.144Z,0.00
2018-09-09T03:55:43.154Z,0.00
2018-09-09T03:56:43.181Z,0.00
2018-09-09T03:57:43.193Z,0.00
2018-09-09T03:58:43.220Z,4.00
2018-09-09T03:59:43.233Z,4.00
2018-09-09T04:00:43.260Z,4.00
2018-09-09T04:01:43.288Z,4.00
2018-09-09T04:02:43.298Z,4.00
2018-09-09T04:03:43.312Z,8.00
2018-09-09T04:04:43.338Z,4.00
2018-09-09T04:05:43.351Z,4.00
2018-09-09T04:06:43.377Z,8.00
2018-09-09T04:07:43.391Z,12.00
2018-09-09T04:08:43.417Z,8.00
2018-09-09T04:09:43.431Z,12.00
2018-09-09T04:10:43.457Z,20.00
2018-09-09T04:11:43.470Z,20.00
2018-09-09T04:12:43.496Z,20.00
2018-09-09T04:13:43.508Z,28.00
2018-09-09T04:14:43.536Z,32.00
2018-09-09T04:15:43.549Z,36.00
2018-09-09T04:16:43.575Z,40.00
2018-09-09T04:17:43.587Z,48.00
2018-09-09T04:18:43.612Z,52.00
2018-09-09T04:19:43.629Z,60.00
2018-09-09T04:20:43.653Z,68.00
2018-09-09T04:21:43.667Z,80.00
2018-09-09T04:22:43.681Z,92.00
2018-09-09T04:23:43.707Z,104.00
2018-09-09T04:24:43.721Z,120.00
2018-09-09T04:25:43.745Z,132.00
2018-09-09T04:26:43.759Z,148.00
2018-09-09T04:27:43.785Z,164.00
2018-09-09T04:28:43.799Z,184.00
2018-09-09T04:29:43.823Z,204.00
2018-09-09T04:30:43.849Z,224.00
2018-09-09T04:31:43.865Z,244.00
2018-09-09T04:32:43.877Z,272.00
2018-09-09T04:33:43.904Z,292.00
2018-09-09T04:34:43.917Z,312.00
2018-09-09T04:35:43.943Z,332.00
2018-09-09T04:36:43.956Z,356.00
2018-09-09T04:37:43.982Z,384.00
2018-09-09T04:38:44.044Z,412.00
2018-09-09T04:39:44.022Z,436.00
2018-09-09T04:40:44.036Z,456.00
2018-09-09T04:41:44.062Z,476.00
2018-09-09T04:42:44.079Z,488.00
2018-09-09T04:43:44.089Z,500.00
2018-09-09T04:44:44.115Z,512.00
2018-09-09T04:45:44.136Z,524.00
2018-09-09T04:46:44.154Z,536.00
2018-09-09T04:47:44.167Z,552.00
2018-09-09T04:48:44.193Z,568.00
2018-09-09T04:49:44.207Z,588.00
2018-09-09T04:50:44.233Z,608.00
2018-09-09T04:51:44.246Z,620.00
2018-09-09T04:52:44.271Z,640.00
2018-09-09T04:53:44.286Z,652.00
2018-09-09T04:54:44.311Z,676.00
2018-09-09T04:55:44.325Z,700.00
2018-09-09T04:56:44.350Z,732.00
2018-09-09T04:57:44.367Z,780.00
2018-09-09T04:58:44.390Z,832.00
2018-09-09T04:59:44.403Z,888.00
2018-09-09T05:00:44.430Z,976.00
2018-09-09T05:01:44.444Z,1116.00
2018-09-09T05:02:44.457Z,1248.00
2018-09-09T05:03:44.485Z,1372.00
2018-09-09T05:04:44.495Z,1476.00
2018-09-09T05:05:44.523Z,1552.00
2018-09-09T05:06:44.538Z,1596.00
2018-09-09T05:07:44.562Z,1632.00
2018-09-09T05:08:44.575Z,1688.00
2018-09-09T05:09:44.600Z,1744.00
2018-09-09T05:10:44.614Z,1796.00
2018-09-09T05:11:44.639Z,1836.00
2018-09-09T05:12:44.656Z,1892.00
2018-09-09T05:13:44.679Z,1928.00
2018-09-09T05:14:44.693Z,1980.00
2018-09-09T05:15:44.719Z,2024.00
2018-09-09T05:16:44.732Z,2092.00
2018-09-09T05:17:44.759Z,2164.00
2018-09-09T05:18:44.771Z,2216.00
2018-09-09T05:19:44.810Z,2292.00
2018-09-09T05:20:44.812Z,2356.00
2018-09-09T05:21:44.841Z,2436.00
2018-09-09T05:22:44.850Z,2500.00
2018-09-09T05:23:44.876Z,2548.00
2018-09-09T05:24:44.890Z,2576.00
2018-09-09T05:25:44.916Z,2600.00
2018-09-09T05:26:44.929Z,2636.00
2018-09-09T05:27:44.960Z,2684.00
2018-09-09T05:28:44.969Z,2740.00
2018-09-09T05:29:44.995Z,2792.00
2018-09-09T05:30:45.008Z,2864.00
2018-09-09T05:31:45.034Z,2960.00
2018-09-09T05:32:45.048Z,3084.00
2018-09-09T05:33:45.062Z,3204.00
2018-09-09T05:34:45.086Z,3308.00
2018-09-09T05:35:45.112Z,3404.00
2018-09-09T05:36:45.128Z,3524.00
2018-09-09T05:37:45.152Z,3624.00
2018-09-09T05:38:45.166Z,3712.00
2018-09-09T05:39:45.204Z,3788.00
2018-09-09T05:40:45.205Z,3848.00
2018-09-09T05:41:45.233Z,3916.00
2018-09-09T05:42:45.243Z,3992.00
2018-09-09T05:43:45.270Z,4116.00
2018-09-09T05:44:45.339Z,4312.00
2018-09-09T05:45:45.310Z,4528.00
2018-09-09T05:46:45.322Z,4752.00
2018-09-09T05:47:45.349Z,4964.00
2018-09-09T05:48:45.363Z,5116.00
2018-09-09T05:49:45.389Z,5224.00
2018-09-09T05:50:45.401Z,5268.00
2018-09-09T05:51:45.428Z,5236.00
2018-09-09T05:52:45.442Z,5228.00
2018-09-09T05:53:45.519Z,5272.00
2018-09-09T05:54:45.493Z,5320.00
2018-09-09T05:55:45.507Z,5352.00
2018-09-09T05:56:45.532Z,5336.00
2018-09-09T05:57:45.554Z,5396.00
2018-09-09T05:58:45.572Z,5524.00
2018-09-09T05:59:45.585Z,5684.00
2018-09-09T06:00:45.612Z,5844.00
2018-09-09T06:01:45.626Z,5960.00
2018-09-09T06:02:45.652Z,6048.00
2018-09-09T06:03:45.664Z,6096.00
2018-09-09T06:04:45.690Z,6156.00
2018-09-09T06:05:45.704Z,6244.00
2018-09-09T06:06:45.730Z,6348.00
2018-09-09T06:07:45.756Z,6472.00
2018-09-09T06:08:45.782Z,6596.00
2018-09-09T06:09:45.795Z,6756.00
2018-09-09T06:10:45.812Z,6916.00
2018-09-09T06:11:45.835Z,7096.00
2018-09-09T06:12:45.848Z,7324.00
2018-09-09T06:13:45.874Z,7616.00
2018-09-09T06:14:45.889Z,7908.00
2018-09-09T06:15:45.914Z,8112.00
2018-09-09T06:16:45.939Z,8296.00
2018-09-09T06:17:45.954Z,8456.00
2018-09-09T06:18:45.978Z,8688.00
2018-09-09T06:19:45.993Z,8948.00
2018-09-09T06:20:46.019Z,9116.00
2018-09-09T06:21:46.045Z,9208.00
2018-09-09T06:22:46.071Z,9208.00
2018-09-09T06:23:46.083Z,9236.00
2018-09-09T06:24:46.110Z,9296.00
2018-09-09T06:25:46.123Z,9408.00
2018-09-09T06:26:46.150Z,9472.00
2018-09-09T06:27:46.163Z,9468.00
2018-09-09T06:28:46.189Z,9412.00
2018-09-09T06:29:46.203Z,9364.00
2018-09-09T06:30:46.230Z,9372.00
2018-09-09T06:31:46.255Z,9424.00
2018-09-09T06:32:46.268Z,9476.00
2018-09-09T06:33:46.297Z,9524.00
2018-09-09T06:34:46.319Z,9576.00
2018-09-09T06:35:46.333Z,9608.00
2018-09-09T06:36:46.360Z,9660.00
2018-09-09T06:37:46.372Z,9776.00
2018-09-09T06:38:46.398Z,9956.00
2018-09-09T06:39:46.424Z,10088.00
2018-09-09T06:40:46.438Z,10108.00
2018-09-09T06:41:46.464Z,9996.00
2018-09-09T06:42:46.546Z,9828.00
2018-09-09T06:43:46.503Z,9708.00
2018-09-09T06:44:46.529Z,9660.00
2018-09-09T06:45:46.554Z,9652.00
2018-09-09T06:46:46.569Z,9668.00
2018-09-09T06:47:46.599Z,9712.00
2018-09-09T06:48:46.620Z,9812.00
2018-09-09T06:49:46.649Z,9964.00
2018-09-09T06:50:46.659Z,10200.00
2018-09-09T06:51:46.693Z,10472.00
2018-09-09T06:52:46.712Z,10804.00
2018-09-09T06:53:46.725Z,11140.00
2018-09-09T06:54:46.752Z,11392.00
2018-09-09T06:55:46.779Z,11544.00
2018-09-09T06:56:46.790Z,11560.00
2018-09-09T06:57:46.816Z,11428.00
2018-09-09T06:58:46.843Z,11224.00
2018-09-09T06:59:46.857Z,11096.00
2018-09-09T07:00:46.882Z,11080.00
2018-09-09T07:01:46.908Z,11196.00
2018-09-09T07:02:46.924Z,11396.00
2018-09-09T07:03:46.947Z,11716.00
2018-09-09T07:04:46.972Z,12128.00
2018-09-09T07:05:47.000Z,12556.00
2018-09-09T07:06:47.012Z,12944.00
2018-09-09T07:07:47.038Z,13272.00
2018-09-09T07:08:47.065Z,13604.00
2018-09-09T07:09:47.081Z,13924.00
2018-09-09T07:10:47.140Z,14256.00
2018-09-09T07:11:47.272Z,14788.00
2018-09-09T07:12:47.170Z,15332.00
2018-09-09T07:13:47.170Z,15772.00
2018-09-09T07:14:47.199Z,16088.00
2018-09-09T07:15:47.221Z,16116.00
2018-09-09T07:16:47.247Z,15972.00
2018-09-09T07:17:47.261Z,16036.00
2018-09-09T07:18:47.286Z,16356.00
2018-09-09T07:19:47.314Z,16712.00
2018-09-09T07:20:47.338Z,17440.00
2018-09-09T07:21:47.354Z,17920.00
2018-09-09T07:22:47.442Z,18496.00
2018-09-09T07:23:47.405Z,21216.00
2018-09-09T07:24:47.430Z,22688.00
2018-09-09T07:25:47.456Z,18784.00
2018-09-09T07:26:47.471Z,18592.00
2018-09-09T07:27:47.495Z,18240.00
2018-09-09T07:28:47.536Z,18976.00
2018-09-09T07:29:47.547Z,21120.00
2018-09-09T07:30:47.561Z,23776.00
2018-09-09T07:31:47.587Z,21984.00
2018-09-09T07:32:47.616Z,18752.00
2018-09-09T07:33:47.641Z,18432.00
2018-09-09T07:34:47.665Z,19072.00
2018-09-09T07:35:47.691Z,21600.00
2018-09-09T07:36:47.704Z,21952.00
2018-09-09T07:37:47.730Z,22464.00
2018-09-09T07:38:47.757Z,23584.00
2018-09-09T07:39:47.781Z,22944.00
2018-09-09T07:40:47.808Z,24928.00
2018-09-09T07:41:47.835Z,29088.00
2018-09-09T07:42:47.848Z,27392.00
2018-09-09T07:43:47.874Z,25920.00
2018-09-09T07:44:47.901Z,26048.00
2018-09-09T07:45:47.926Z,23776.00
2018-09-09T07:46:47.952Z,23680.00
2018-09-09T07:47:47.981Z,20256.00
2018-09-09T07:48:48.004Z,19424.00
2018-09-09T07:49:48.019Z,18944.00
2018-09-09T07:50:48.096Z,18496.00
2018-09-09T07:51:48.068Z,18080.00
2018-09-09T07:52:48.096Z,17760.00
2018-09-09T07:53:48.122Z,17536.00
2018-09-09T07:54:48.147Z,17132.00
2018-09-09T07:55:48.172Z,16840.00
2018-09-09T07:56:48.202Z,16736.00
2018-09-09T07:57:48.225Z,16696.00
2018-09-09T07:58:48.239Z,16748.00
2018-09-09T07:59:48.265Z,16804.00
2018-09-09T08:00:48.291Z,16928.00
2018-09-09T08:01:48.321Z,16932.00
2018-09-09T08:02:48.343Z,16892.00
2018-09-09T08:03:48.371Z,16712.00
2018-09-09T08:04:48.395Z,16456.00
2018-09-09T08:05:48.421Z,16020.00
2018-09-09T08:06:48.447Z,15444.00
2018-09-09T08:07:48.471Z,14792.00
2018-09-09T08:08:48.497Z,14124.00
2018-09-09T08:09:48.523Z,13480.00
2018-09-09T08:10:48.537Z,12792.00
2018-09-09T08:11:48.562Z,12096.00
2018-09-09T08:12:48.590Z,11468.00
2018-09-09T08:13:48.616Z,10964.00
2018-09-09T08:14:48.642Z,10416.00
2018-09-09T08:15:48.680Z,10084.00
2018-09-09T08:16:48.693Z,9724.00
2018-09-09T08:17:48.724Z,9584.00
2018-09-09T08:18:48.748Z,9488.00
2018-09-09T08:19:48.783Z,9512.00
2018-09-09T08:20:48.784Z,9620.00
2018-09-09T08:21:48.811Z,9932.00
2018-09-09T08:22:48.836Z,9964.00
2018-09-09T08:23:48.862Z,9652.00
2018-09-09T08:24:48.888Z,9296.00
2018-09-09T08:25:48.914Z,9232.00
2018-09-09T08:26:48.940Z,9508.00
2018-09-09T08:27:48.966Z,9720.00
2018-09-09T08:28:48.981Z,9940.00
2018-09-09T08:29:49.007Z,9924.00
2018-09-09T08:30:49.044Z,9840.00
2018-09-09T08:31:49.070Z,9688.00
2018-09-09T08:32:49.083Z,9496.00
2018-09-09T08:33:49.108Z,9288.00
2018-09-09T08:34:49.196Z,9128.00
2018-09-09T08:35:49.160Z,8996.00
2018-09-09T08:36:49.175Z,8900.00
2018-09-09T08:37:49.201Z,8832.00
2018-09-09T08:38:49.226Z,8764.00
2018-09-09T08:39:49.253Z,8652.00
2018-09-09T08:40:49.278Z,8532.00
2018-09-09T08:41:49.304Z,8368.00
2018-09-09T08:42:49.330Z,8176.00
2018-09-09T08:43:49.343Z,7968.00
2018-09-09T08:44:49.369Z,7752.00
2018-09-09T08:45:49.395Z,7556.00
2018-09-09T08:46:49.422Z,7408.00
2018-09-09T08:47:49.448Z,7292.00
2018-09-09T08:48:49.473Z,7180.00
2018-09-09T08:49:49.499Z,7068.00
2018-09-09T08:50:49.515Z,6960.00
2018-09-09T08:51:49.623Z,6860.00
2018-09-09T08:52:49.567Z,6748.00
2018-09-09T08:53:49.594Z,6628.00
2018-09-09T08:54:49.617Z,6508.00
2018-09-09T08:55:49.643Z,6404.00
2018-09-09T08:56:49.669Z,6300.00
2018-09-09T08:57:49.696Z,6192.00
2018-09-09T08:58:49.708Z,6096.00
2018-09-09T08:59:49.747Z,6000.00
2018-09-09T09:00:49.762Z,5904.00
2018-09-09T09:01:49.787Z,5812.00
2018-09-09T09:02:49.811Z,5724.00
2018-09-09T09:03:49.837Z,5644.00
2018-09-09T09:04:49.853Z,5584.00
2018-09-09T09:05:49.878Z,5504.00
2018-09-09T09:06:49.904Z,5440.00
2018-09-09T09:07:49.985Z,5380.00
2018-09-09T09:08:49.955Z,5316.00
2018-09-09T09:09:49.981Z,5272.00
2018-09-09T09:10:49.994Z,5240.00
2018-09-09T09:11:50.028Z,5212.00
2018-09-09T09:12:50.046Z,5188.00
2018-09-09T09:13:50.072Z,5160.00
2018-09-09T09:14:50.171Z,5128.00
2018-09-09T09:15:50.125Z,5100.00
2018-09-09T09:16:50.150Z,5080.00
2018-09-09T09:17:50.164Z,5068.00
2018-09-09T09:18:50.190Z,5068.00
2018-09-09T09:19:50.217Z,5056.00
2018-09-09T09:20:50.241Z,5044.00
2018-09-09T09:21:50.268Z,5036.00
2018-09-09T09:22:50.294Z,5032.00
2018-09-09T09:23:50.308Z,5032.00
2018-09-09T09:24:50.332Z,5032.00
2018-09-09T09:25:50.358Z,5036.00
2018-09-09T09:26:50.384Z,5048.00
2018-09-09T09:27:50.410Z,5052.00
2018-09-09T09:28:50.449Z,5052.00
2018-09-09T09:29:50.452Z,5048.00
2018-09-09T09:30:50.548Z,5040.00
2018-09-09T09:31:50.502Z,5036.00
2018-09-09T09:32:50.528Z,5044.00
2018-09-09T09:33:50.554Z,5044.00
2018-09-09T09:34:50.579Z,5036.00
2018-09-09T09:35:50.606Z,5036.00
2018-09-09T09:36:50.619Z,5040.00
2018-09-09T09:37:50.645Z,5044.00
2018-09-09T09:38:50.671Z,5072.00
2018-09-09T09:39:50.697Z,5096.00
2018-09-09T09:40:50.723Z,5112.00
2018-09-09T09:41:50.749Z,5136.00
2018-09-09T09:42:50.764Z,5148.00
2018-09-09T09:43:50.791Z,5164.00
2018-09-09T09:44:50.854Z,5172.00
2018-09-09T09:45:50.841Z,5168.00
2018-09-09T09:46:50.866Z,5160.00
2018-09-09T09:47:50.892Z,5156.00
2018-09-09T09:48:50.919Z,5144.00
2018-09-09T09:49:50.944Z,5140.00
2018-09-09T09:50:50.957Z,5128.00
2018-09-09T09:51:50.986Z,5128.00
2018-09-09T09:52:51.023Z,5140.00
2018-09-09T09:53:51.037Z,5164.00
2018-09-09T09:54:51.061Z,5204.00
2018-09-09T09:55:51.088Z,5240.00
2018-09-09T09:56:51.104Z,5260.00
2018-09-09T09:57:51.130Z,5280.00
2018-09-09T09:58:51.153Z,5296.00
2018-09-09T09:59:51.179Z,5308.00
2018-09-09T10:00:51.205Z,5308.00
2018-09-09T10:01:51.231Z,5300.00
2018-09-09T10:02:51.257Z,5296.00
2018-09-09T10:03:51.271Z,5288.00
2018-09-09T10:04:51.297Z,5284.00
2018-09-09T10:05:51.334Z,5260.00
2018-09-09T10:06:51.351Z,5260.00
2018-09-09T10:07:51.373Z,5268.00
2018-09-09T10:08:51.399Z,5280.00
2018-09-09T10:09:51.426Z,5288.00
2018-09-09T10:10:51.452Z,5336.00
2018-09-09T10:11:51.467Z,5376.00
2018-09-09T10:12:51.492Z,5420.00
2018-09-09T10:13:51.519Z,5468.00
2018-09-09T10:14:51.544Z,5508.00
2018-09-09T10:15:51.569Z,5564.00
2018-09-09T10:16:51.598Z,5660.00
2018-09-09T10:17:51.622Z,5800.00
2018-09-09T10:18:51.648Z,5896.00
2018-09-09T10:19:51.674Z,5908.00
2018-09-09T10:20:51.687Z,5840.00
2018-09-09T10:21:51.713Z,5852.00
2018-09-09T10:22:51.738Z,5828.00
2018-09-09T10:23:51.786Z,5768.00
2018-09-09T10:24:51.790Z,5776.00
2018-09-09T10:25:51.821Z,5924.00
2018-09-09T10:26:51.842Z,6308.00
2018-09-09T10:27:51.870Z,6812.00
2018-09-09T10:28:51.894Z,7004.00
2018-09-09T10:29:51.909Z,6252.00
2018-09-09T10:30:51.935Z,6048.00
2018-09-09T10:31:51.961Z,6200.00
2018-09-09T10:32:51.987Z,6864.00
2018-09-09T10:33:52.012Z,7656.00
2018-09-09T10:34:52.038Z,7880.00
2018-09-09T10:35:52.064Z,10216.00
2018-09-09T10:36:52.090Z,29440.00
2018-09-09T10:37:52.116Z,52192.00
2018-09-09T10:38:52.142Z,49824.00
2018-09-09T10:39:52.168Z,28992.00
2018-09-09T10:40:52.208Z,30784.00
2018-09-09T10:41:52.220Z,49856.00
2018-09-09T10:42:52.245Z,57344.00
2018-09-09T10:43:52.272Z,41632.00
2018-09-09T10:44:52.298Z,27488.00
2018-09-09T10:45:52.323Z,40320.00
2018-09-09T10:46:52.450Z,60832.00
2018-09-09T10:47:52.375Z,49568.00
2018-09-09T10:48:52.401Z,26208.00
2018-09-09T10:49:52.428Z,9892.00
2018-09-09T10:50:52.453Z,24128.00
2018-09-09T10:51:52.490Z,49472.00
2018-09-09T10:52:52.516Z,63552.00
2018-09-09T10:53:52.556Z,64480.00
2018-09-09T10:54:52.569Z,67104.00
2018-09-09T10:55:52.596Z,68768.00
2018-09-09T10:56:52.634Z,66464.00
2018-09-09T10:57:52.660Z,57696.00
2018-09-09T10:58:52.723Z,47616.00
2018-09-09T10:59:52.725Z,38784.00
2018-09-09T11:00:52.751Z,26560.00
2018-09-09T11:01:52.791Z,13784.00
2018-09-09T11:02:52.815Z,8020.00
2018-09-09T11:03:52.841Z,6612.00
2018-09-09T11:04:52.879Z,6644.00
2018-09-09T11:05:52.904Z,6636.00
2018-09-09T11:06:52.952Z,6628.00
2018-09-09T11:07:52.974Z,6576.00
2018-09-09T11:08:52.995Z,6720.00
2018-09-09T11:09:53.047Z,6992.00
2018-09-09T11:10:53.059Z,7000.00
2018-09-09T11:11:53.089Z,7704.00
2018-09-09T11:12:53.176Z,8052.00
2018-09-09T11:13:53.150Z,8392.00
2018-09-09T11:14:53.177Z,7800.00
2018-09-09T11:15:53.202Z,7276.00
2018-09-09T11:16:53.239Z,7408.00
2018-09-09T11:17:53.271Z,7912.00
2018-09-09T11:18:53.295Z,8248.00
2018-09-09T11:19:53.319Z,8228.00
2018-09-09T11:20:53.344Z,8008.00
2018-09-09T11:21:53.371Z,7708.00
2018-09-09T11:22:53.409Z,7384.00
2018-09-09T11:23:53.434Z,7164.00
2018-09-09T11:24:53.461Z,6908.00
2018-09-09T11:25:53.487Z,6672.00
2018-09-09T11:26:53.512Z,6548.00
2018-09-09T11:27:53.539Z,6600.00
2018-09-09T11:28:53.577Z,6832.00
2018-09-09T11:29:53.661Z,7188.00
2018-09-09T11:30:53.630Z,7852.00
2018-09-09T11:31:53.656Z,10492.00
2018-09-09T11:32:53.680Z,30176.00
2018-09-09T11:33:53.706Z,55552.00
2018-09-09T11:34:53.732Z,71360.00
2018-09-09T11:35:53.760Z,72224.00
2018-09-09T11:36:53.797Z,71232.00
2018-09-09T11:37:53.823Z,71776.00
2018-09-09T11:38:53.849Z,72704.00
2018-09-09T11:39:53.875Z,71456.00
2018-09-09T11:40:53.901Z,70048.00
2018-09-09T11:41:53.929Z,69920.00
2018-09-09T11:42:53.964Z,68704.00
2018-09-09T11:43:53.990Z,67488.00
2018-09-09T11:44:54.018Z,60832.00
2018-09-09T11:45:54.056Z,51072.00
2018-09-09T11:46:54.081Z,38176.00
2018-09-09T11:47:54.120Z,24608.00
2018-09-09T11:48:54.146Z,12732.00
2018-09-09T11:49:54.185Z,6940.00
2018-09-09T11:50:54.211Z,5636.00
2018-09-09T11:51:54.248Z,5368.00
2018-09-09T11:52:54.275Z,5336.00
2018-09-09T11:53:54.301Z,5312.00
2018-09-09T11:54:54.340Z,5284.00
2018-09-09T11:55:54.366Z,5252.00
2018-09-09T11:56:54.403Z,5224.00
2018-09-09T11:57:54.442Z,5192.00
2018-09-09T11:58:54.456Z,5164.00
2018-09-09T11:59:54.494Z,5152.00
2018-09-09T12:00:54.520Z,5136.00
2018-09-09T12:01:54.600Z,5128.00
2018-09-09T12:02:54.572Z,5116.00
2018-09-09T12:03:54.609Z,5104.00
2018-09-09T12:04:54.636Z,5092.00
2018-09-09T12:05:54.661Z,5080.00
2018-09-09T12:06:54.688Z,5072.00
2018-09-09T12:07:54.727Z,5072.00
2018-09-09T12:08:54.753Z,5084.00
2018-09-09T12:09:54.778Z,5104.00
2018-09-09T12:10:54.804Z,5096.00
2018-09-09T12:11:54.831Z,5132.00
2018-09-09T12:12:54.868Z,5172.00
2018-09-09T12:13:54.895Z,5160.00
2018-09-09T12:14:54.921Z,5160.00
2018-09-09T12:15:54.945Z,5164.00
2018-09-09T12:16:54.971Z,5168.00
2018-09-09T12:17:54.997Z,5164.00
2018-09-09T12:18:55.024Z,5164.00
2018-09-09T12:19:55.065Z,5168.00
2018-09-09T12:20:55.088Z,5160.00
2018-09-09T12:21:55.117Z,5148.00
2018-09-09T12:22:55.140Z,5124.00
2018-09-09T12:23:55.166Z,5092.00
2018-09-09T12:24:55.193Z,5068.00
2018-09-09T12:25:55.219Z,5040.00
2018-09-09T12:26:55.244Z,5028.00